sensor_id;sensor_type;location;lat;lon;timestamp;P1;durP1;ratioP1;P2;durP2;ratioP2
78365;SDS011;67641;59.864;30.464;2023-04-29T00:01:03;3.00;;;0.80;;
78365;SDS011;67641;59.864;30.464;2023-04-29T00:03:30;1.83;;;0.60;;
78365;SDS011;67641;59.864;30.464;2023-04-29T00:06:00;1.70;;;0.70;;
78365;SDS011;67641;59.864;30.464;2023-04-29T00:10:56;2.55;;;0.70;;
78365;SDS011;67641;59.864;30.464;2023-04-29T00:13:23;1.20;;;0.55;;
78365;SDS011;67641;59.864;30.464;2023-04-29T00:15:51;1.60;;;0.70;;
78365;SDS011;67641;59.864;30.464;2023-04-29T00:18:17;1.90;;;0.63;;
78365;SDS011;67641;59.864;30.464;2023-04-29T00:20:44;1.50;;;0.60;;
78365;SDS011;67641;59.864;30.464;2023-04-29T00:23:11;1.13;;;0.50;;
78365;SDS011;67641;59.864;30.464;2023-04-29T00:25:38;1.67;;;0.80;;
78365;SDS011;67641;59.864;30.464;2023-04-29T00:28:05;1.52;;;0.50;;
78365;SDS011;67641;59.864;30.464;2023-04-29T00:30:57;1.15;;;0.43;;
78365;SDS011;67641;59.864;30.464;2023-04-29T00:33:23;1.38;;;0.45;;
78365;SDS011;67641;59.864;30.464;2023-04-29T00:35:50;1.50;;;0.60;;
78365;SDS011;67641;59.864;30.464;2023-04-29T00:38:17;2.20;;;0.60;;
78365;SDS011;67641;59.864;30.464;2023-04-29T00:40:44;7.55;;;2.90;;
78365;SDS011;67641;59.864;30.464;2023-04-29T00:43:11;4.82;;;2.00;;
78365;SDS011;67641;59.864;30.464;2023-04-29T00:45:38;3.25;;;1.25;;
78365;SDS011;67641;59.864;30.464;2023-04-29T00:48:05;2.05;;;1.00;;
78365;SDS011;67641;59.864;30.464;2023-04-29T00:52:25;2.25;;;0.70;;
78365;SDS011;67641;59.864;30.464;2023-04-29T00:54:57;1.50;;;0.60;;
78365;SDS011;67641;59.864;30.464;2023-04-29T00:57:25;1.58;;;0.60;;
78365;SDS011;67641;59.864;30.464;2023-04-29T00:59:55;2.30;;;0.70;;
78365;SDS011;67641;59.864;30.464;2023-04-29T01:02:24;1.92;;;0.50;;
78365;SDS011;67641;59.864;30.464;2023-04-29T01:04:51;2.33;;;1.10;;
78365;SDS011;67641;59.864;30.464;2023-04-29T01:07:36;8.23;;;4.82;;
78365;SDS011;67641;59.864;30.464;2023-04-29T01:13:08;3.08;;;1.73;;
78365;SDS011;67641;59.864;30.464;2023-04-29T01:15:48;2.88;;;1.45;;
78365;SDS011;67641;59.864;30.464;2023-04-29T01:18:24;1.80;;;0.70;;
78365;SDS011;67641;59.864;30.464;2023-04-29T01:20:53;1.75;;;1.08;;
78365;SDS011;67641;59.864;30.464;2023-04-29T01:23:28;2.17;;;0.70;;
78365;SDS011;67641;59.864;30.464;2023-04-29T01:25:55;1.50;;;0.73;;
78365;SDS011;67641;59.864;30.464;2023-04-29T01:35:35;1.60;;;0.68;;
78365;SDS011;67641;59.864;30.464;2023-04-29T01:41:04;1.83;;;0.68;;
78365;SDS011;67641;59.864;30.464;2023-04-29T01:43:45;2.28;;;0.82;;
78365;SDS011;67641;59.864;30.464;2023-04-29T01:46:15;1.52;;;0.68;;
78365;SDS011;67641;59.864;30.464;2023-04-29T01:48:46;1.70;;;0.68;;
78365;SDS011;67641;59.864;30.464;2023-04-29T01:53:17;2.88;;;0.57;;
78365;SDS011;67641;59.864;30.464;2023-04-29T01:55:43;1.20;;;0.65;;
78365;SDS011;67641;59.864;30.464;2023-04-29T01:58:10;2.70;;;0.70;;
78365;SDS011;67641;59.864;30.464;2023-04-29T02:00:37;2.08;;;0.88;;
78365;SDS011;67641;59.864;30.464;2023-04-29T02:03:04;1.40;;;0.60;;
78365;SDS011;67641;59.864;30.464;2023-04-29T02:05:30;1.70;;;0.80;;
78365;SDS011;67641;59.864;30.464;2023-04-29T02:07:59;3.15;;;0.70;;
78365;SDS011;67641;59.864;30.464;2023-04-29T02:10:26;2.03;;;0.60;;
78365;SDS011;67641;59.864;30.464;2023-04-29T02:14:29;1.75;;;0.80;;
78365;SDS011;67641;59.864;30.464;2023-04-29T02:16:56;2.38;;;0.73;;
78365;SDS011;67641;59.864;30.464;2023-04-29T02:19:23;3.30;;;1.00;;
78365;SDS011;67641;59.864;30.464;2023-04-29T02:21:50;2.53;;;1.00;;
78365;SDS011;67641;59.864;30.464;2023-04-29T02:24:16;1.90;;;0.88;;
78365;SDS011;67641;59.864;30.464;2023-04-29T02:26:43;2.22;;;0.98;;
78365;SDS011;67641;59.864;30.464;2023-04-29T02:29:10;2.83;;;0.95;;
78365;SDS011;67641;59.864;30.464;2023-04-29T02:31:37;3.67;;;1.20;;
78365;SDS011;67641;59.864;30.464;2023-04-29T02:34:26;2.45;;;1.08;;
78365;SDS011;67641;59.864;30.464;2023-04-29T02:36:53;1.42;;;0.80;;
78365;SDS011;67641;59.864;30.464;2023-04-29T02:39:20;4.75;;;1.00;;
78365;SDS011;67641;59.864;30.464;2023-04-29T02:41:47;2.20;;;0.82;;
78365;SDS011;67641;59.864;30.464;2023-04-29T02:44:14;1.73;;;0.90;;
78365;SDS011;67641;59.864;30.464;2023-04-29T02:46:40;1.60;;;0.70;;
78365;SDS011;67641;59.864;30.464;2023-04-29T02:49:11;2.08;;;0.60;;
78365;SDS011;67641;59.864;30.464;2023-04-29T02:51:39;2.63;;;1.10;;
78365;SDS011;67641;59.864;30.464;2023-04-29T02:56:24;1.25;;;0.70;;
78365;SDS011;67641;59.864;30.464;2023-04-29T02:58:54;1.88;;;0.75;;
78365;SDS011;67641;59.864;30.464;2023-04-29T03:01:20;1.75;;;0.77;;
78365;SDS011;67641;59.864;30.464;2023-04-29T03:03:49;1.38;;;0.68;;
78365;SDS011;67641;59.864;30.464;2023-04-29T03:06:15;1.50;;;0.73;;
78365;SDS011;67641;59.864;30.464;2023-04-29T03:08:42;1.20;;;0.52;;
78365;SDS011;67641;59.864;30.464;2023-04-29T03:11:09;1.50;;;0.70;;
78365;SDS011;67641;59.864;30.464;2023-04-29T03:13:36;1.70;;;1.00;;
78365;SDS011;67641;59.864;30.464;2023-04-29T03:16:21;1.58;;;0.65;;
78365;SDS011;67641;59.864;30.464;2023-04-29T03:18:49;2.15;;;0.73;;
78365;SDS011;67641;59.864;30.464;2023-04-29T03:21:15;1.63;;;0.70;;
78365;SDS011;67641;59.864;30.464;2023-04-29T03:23:42;1.88;;;1.02;;
78365;SDS011;67641;59.864;30.464;2023-04-29T03:26:09;1.50;;;0.63;;
78365;SDS011;67641;59.864;30.464;2023-04-29T03:28:36;1.50;;;0.70;;
78365;SDS011;67641;59.864;30.464;2023-04-29T03:31:03;1.70;;;0.80;;
78365;SDS011;67641;59.864;30.464;2023-04-29T03:33:30;2.28;;;0.80;;
78365;SDS011;67641;59.864;30.464;2023-04-29T03:36:19;1.17;;;0.60;;
78365;SDS011;67641;59.864;30.464;2023-04-29T03:38:46;1.23;;;0.60;;
78365;SDS011;67641;59.864;30.464;2023-04-29T03:41:12;1.55;;;0.75;;
78365;SDS011;67641;59.864;30.464;2023-04-29T03:43:39;0.88;;;0.60;;
78365;SDS011;67641;59.864;30.464;2023-04-29T03:46:09;1.30;;;0.57;;
78365;SDS011;67641;59.864;30.464;2023-04-29T03:48:35;1.70;;;0.70;;
78365;SDS011;67641;59.864;30.464;2023-04-29T03:51:02;1.45;;;0.60;;
78365;SDS011;67641;59.864;30.464;2023-04-29T03:53:30;1.30;;;0.70;;
78365;SDS011;67641;59.864;30.464;2023-04-29T03:57:01;1.45;;;0.75;;
78365;SDS011;67641;59.864;30.464;2023-04-29T03:59:29;1.50;;;0.73;;
78365;SDS011;67641;59.864;30.464;2023-04-29T04:01:56;2.63;;;0.77;;
78365;SDS011;67641;59.864;30.464;2023-04-29T04:04:23;1.95;;;0.70;;
78365;SDS011;67641;59.864;30.464;2023-04-29T04:06:51;1.60;;;0.70;;
78365;SDS011;67641;59.864;30.464;2023-04-29T04:09:18;2.85;;;0.70;;
78365;SDS011;67641;59.864;30.464;2023-04-29T04:11:45;1.75;;;0.80;;
78365;SDS011;67641;59.864;30.464;2023-04-29T04:14:12;1.65;;;0.88;;
78365;SDS011;67641;59.864;30.464;2023-04-29T04:17:59;2.53;;;0.70;;
78365;SDS011;67641;59.864;30.464;2023-04-29T04:20:26;3.40;;;1.02;;
78365;SDS011;67641;59.864;30.464;2023-04-29T04:22:52;2.10;;;1.15;;
78365;SDS011;67641;59.864;30.464;2023-04-29T04:25:19;2.05;;;1.20;;
78365;SDS011;67641;59.864;30.464;2023-04-29T04:27:46;2.30;;;1.00;;
78365;SDS011;67641;59.864;30.464;2023-04-29T04:30:13;2.03;;;0.80;;
78365;SDS011;67641;59.864;30.464;2023-04-29T04:32:43;1.98;;;0.77;;
78365;SDS011;67641;59.864;30.464;2023-04-29T04:35:10;1.77;;;0.80;;
78365;SDS011;67641;59.864;30.464;2023-04-29T04:39:09;2.05;;;1.00;;
78365;SDS011;67641;59.864;30.464;2023-04-29T04:41:37;2.35;;;0.80;;
78365;SDS011;67641;59.864;30.464;2023-04-29T04:44:04;1.73;;;0.88;;
78365;SDS011;67641;59.864;30.464;2023-04-29T04:46:31;2.85;;;0.90;;
78365;SDS011;67641;59.864;30.464;2023-04-29T04:48:58;1.88;;;0.80;;
78365;SDS011;67641;59.864;30.464;2023-04-29T04:51:25;1.83;;;0.85;;
78365;SDS011;67641;59.864;30.464;2023-04-29T04:53:54;1.90;;;0.73;;
78365;SDS011;67641;59.864;30.464;2023-04-29T04:56:21;2.03;;;1.17;;
78365;SDS011;67641;59.864;30.464;2023-04-29T04:59:05;2.63;;;1.00;;
78365;SDS011;67641;59.864;30.464;2023-04-29T05:01:33;1.85;;;1.00;;
78365;SDS011;67641;59.864;30.464;2023-04-29T05:03:59;2.17;;;1.10;;
78365;SDS011;67641;59.864;30.464;2023-04-29T05:06:27;2.75;;;1.02;;
78365;SDS011;67641;59.864;30.464;2023-04-29T05:08:54;2.75;;;1.23;;
78365;SDS011;67641;59.864;30.464;2023-04-29T05:11:21;2.47;;;1.05;;
78365;SDS011;67641;59.864;30.464;2023-04-29T05:13:48;1.90;;;1.02;;
78365;SDS011;67641;59.864;30.464;2023-04-29T05:16:14;1.88;;;0.95;;
78365;SDS011;67641;59.864;30.464;2023-04-29T05:20:18;1.77;;;0.90;;
78365;SDS011;67641;59.864;30.464;2023-04-29T05:22:48;3.45;;;1.08;;
78365;SDS011;67641;59.864;30.464;2023-04-29T05:25:15;1.55;;;1.10;;
78365;SDS011;67641;59.864;30.464;2023-04-29T05:27:42;1.77;;;0.98;;
78365;SDS011;67641;59.864;30.464;2023-04-29T05:30:09;2.85;;;1.30;;
78365;SDS011;67641;59.864;30.464;2023-04-29T05:32:36;2.58;;;1.10;;
78365;SDS011;67641;59.864;30.464;2023-04-29T05:35:03;2.53;;;1.05;;
78365;SDS011;67641;59.864;30.464;2023-04-29T05:37:30;1.83;;;1.13;;
78365;SDS011;67641;59.864;30.464;2023-04-29T05:40:16;2.35;;;1.10;;
78365;SDS011;67641;59.864;30.464;2023-04-29T05:42:42;2.45;;;1.00;;
78365;SDS011;67641;59.864;30.464;2023-04-29T05:45:09;2.05;;;0.90;;
78365;SDS011;67641;59.864;30.464;2023-04-29T05:47:37;2.67;;;1.00;;
78365;SDS011;67641;59.864;30.464;2023-04-29T05:50:04;1.88;;;1.05;;
78365;SDS011;67641;59.864;30.464;2023-04-29T05:52:31;1.77;;;0.93;;
78365;SDS011;67641;59.864;30.464;2023-04-29T05:54:58;1.58;;;1.00;;
78365;SDS011;67641;59.864;30.464;2023-04-29T05:57:25;2.17;;;1.00;;
78365;SDS011;67641;59.864;30.464;2023-04-29T06:02:16;2.70;;;1.00;;
78365;SDS011;67641;59.864;30.464;2023-04-29T06:04:43;3.15;;;1.35;;
78365;SDS011;67641;59.864;30.464;2023-04-29T06:07:12;2.33;;;1.17;;
78365;SDS011;67641;59.864;30.464;2023-04-29T06:09:39;2.45;;;1.38;;
78365;SDS011;67641;59.864;30.464;2023-04-29T06:12:07;3.83;;;1.35;;
78365;SDS011;67641;59.864;30.464;2023-04-29T06:14:33;1.92;;;1.35;;
78365;SDS011;67641;59.864;30.464;2023-04-29T06:17:00;4.47;;;1.05;;
78365;SDS011;67641;59.864;30.464;2023-04-29T06:19:27;2.60;;;1.05;;
78365;SDS011;67641;59.864;30.464;2023-04-29T06:23:51;4.13;;;0.95;;
78365;SDS011;67641;59.864;30.464;2023-04-29T06:26:21;2.42;;;1.02;;
78365;SDS011;67641;59.864;30.464;2023-04-29T06:28:48;2.03;;;1.25;;
78365;SDS011;67641;59.864;30.464;2023-04-29T06:31:15;2.90;;;1.05;;
78365;SDS011;67641;59.864;30.464;2023-04-29T06:33:42;3.20;;;1.20;;
78365;SDS011;67641;59.864;30.464;2023-04-29T06:36:09;2.42;;;1.02;;
78365;SDS011;67641;59.864;30.464;2023-04-29T06:38:36;2.20;;;0.98;;
78365;SDS011;67641;59.864;30.464;2023-04-29T06:41:03;2.72;;;1.20;;
78365;SDS011;67641;59.864;30.464;2023-04-29T06:46:06;1.73;;;0.80;;
78365;SDS011;67641;59.864;30.464;2023-04-29T06:48:35;2.95;;;0.90;;
78365;SDS011;67641;59.864;30.464;2023-04-29T06:51:02;2.30;;;0.70;;
78365;SDS011;67641;59.864;30.464;2023-04-29T06:53:29;1.48;;;0.70;;
78365;SDS011;67641;59.864;30.464;2023-04-29T06:55:56;2.50;;;0.73;;
78365;SDS011;67641;59.864;30.464;2023-04-29T06:58:23;3.05;;;0.80;;
78365;SDS011;67641;59.864;30.464;2023-04-29T07:00:50;1.70;;;0.68;;
78365;SDS011;67641;59.864;30.464;2023-04-29T07:03:17;2.85;;;1.10;;
78365;SDS011;67641;59.864;30.464;2023-04-29T07:08:14;1.63;;;0.65;;
78365;SDS011;67641;59.864;30.464;2023-04-29T07:10:41;1.77;;;0.68;;
78365;SDS011;67641;59.864;30.464;2023-04-29T07:13:08;2.10;;;0.80;;
78365;SDS011;67641;59.864;30.464;2023-04-29T07:15:35;1.55;;;0.80;;
78365;SDS011;67641;59.864;30.464;2023-04-29T07:18:03;2.10;;;0.63;;
78365;SDS011;67641;59.864;30.464;2023-04-29T07:20:30;1.50;;;0.60;;
78365;SDS011;67641;59.864;30.464;2023-04-29T07:22:58;1.10;;;0.65;;
78365;SDS011;67641;59.864;30.464;2023-04-29T07:25:27;1.63;;;0.63;;
78365;SDS011;67641;59.864;30.464;2023-04-29T07:29:27;1.73;;;0.60;;
78365;SDS011;67641;59.864;30.464;2023-04-29T07:31:54;1.80;;;0.57;;
78365;SDS011;67641;59.864;30.464;2023-04-29T07:34:21;2.92;;;0.52;;
78365;SDS011;67641;59.864;30.464;2023-04-29T07:36:48;2.15;;;0.60;;
78365;SDS011;67641;59.864;30.464;2023-04-29T07:39:15;2.05;;;0.60;;
78365;SDS011;67641;59.864;30.464;2023-04-29T07:41:45;2.35;;;0.77;;
78365;SDS011;67641;59.864;30.464;2023-04-29T07:44:15;1.63;;;0.60;;
78365;SDS011;67641;59.864;30.464;2023-04-29T07:46:42;1.30;;;0.50;;
78365;SDS011;67641;59.864;30.464;2023-04-29T07:50:40;1.85;;;0.63;;
78365;SDS011;67641;59.864;30.464;2023-04-29T07:53:08;2.03;;;0.70;;
78365;SDS011;67641;59.864;30.464;2023-04-29T07:55:36;1.17;;;0.60;;
78365;SDS011;67641;59.864;30.464;2023-04-29T07:58:05;1.52;;;0.50;;
78365;SDS011;67641;59.864;30.464;2023-04-29T08:00:36;1.58;;;0.68;;
78365;SDS011;67641;59.864;30.464;2023-04-29T08:03:04;2.15;;;0.60;;
78365;SDS011;67641;59.864;30.464;2023-04-29T08:05:31;2.05;;;0.80;;
78365;SDS011;67641;59.864;30.464;2023-04-29T08:08:01;0.93;;;0.50;;
78365;SDS011;67641;59.864;30.464;2023-04-29T08:12:09;1.25;;;0.60;;
78365;SDS011;67641;59.864;30.464;2023-04-29T08:14:36;1.55;;;0.75;;
78365;SDS011;67641;59.864;30.464;2023-04-29T08:17:04;1.50;;;0.63;;
78365;SDS011;67641;59.864;30.464;2023-04-29T08:19:32;1.20;;;0.50;;
78365;SDS011;67641;59.864;30.464;2023-04-29T08:22:00;1.60;;;0.60;;
78365;SDS011;67641;59.864;30.464;2023-04-29T08:24:32;2.28;;;0.60;;
78365;SDS011;67641;59.864;30.464;2023-04-29T08:27:00;3.05;;;1.00;;
78365;SDS011;67641;59.864;30.464;2023-04-29T08:32:55;4.35;;;0.80;;
78365;SDS011;67641;59.864;30.464;2023-04-29T08:35:22;2.38;;;0.95;;
78365;SDS011;67641;59.864;30.464;2023-04-29T08:37:49;2.72;;;0.95;;
78365;SDS011;67641;59.864;30.464;2023-04-29T08:40:18;2.70;;;1.20;;
78365;SDS011;67641;59.864;30.464;2023-04-29T08:42:45;3.10;;;1.30;;
78365;SDS011;67641;59.864;30.464;2023-04-29T08:45:14;1.45;;;0.68;;
78365;SDS011;67641;59.864;30.464;2023-04-29T08:47:45;3.15;;;1.10;;
78365;SDS011;67641;59.864;30.464;2023-04-29T08:50:14;3.58;;;1.20;;
78365;SDS011;67641;59.864;30.464;2023-04-29T08:54:35;7.97;;;3.92;;
78365;SDS011;67641;59.864;30.464;2023-04-29T08:57:02;6.15;;;3.28;;
78365;SDS011;67641;59.864;30.464;2023-04-29T08:59:31;3.60;;;1.80;;
78365;SDS011;67641;59.864;30.464;2023-04-29T09:01:58;3.10;;;1.30;;
78365;SDS011;67641;59.864;30.464;2023-04-29T09:04:36;2.80;;;1.33;;
78365;SDS011;67641;59.864;30.464;2023-04-29T09:07:12;2.47;;;1.05;;
78365;SDS011;67641;59.864;30.464;2023-04-29T09:09:40;2.55;;;1.30;;
78365;SDS011;67641;59.864;30.464;2023-04-29T09:12:07;5.75;;;2.88;;
78365;SDS011;67641;59.864;30.464;2023-04-29T09:16:49;11.85;;;5.78;;
78365;SDS011;67641;59.864;30.464;2023-04-29T09:19:32;9.63;;;4.57;;
78365;SDS011;67641;59.864;30.464;2023-04-29T09:22:00;11.18;;;5.60;;
78365;SDS011;67641;59.864;30.464;2023-04-29T09:24:28;9.48;;;4.45;;
78365;SDS011;67641;59.864;30.464;2023-04-29T09:26:56;4.28;;;2.30;;
78365;SDS011;67641;59.864;30.464;2023-04-29T09:29:24;2.40;;;1.10;;
78365;SDS011;67641;59.864;30.464;2023-04-29T09:31:51;2.00;;;1.08;;
78365;SDS011;67641;59.864;30.464;2023-04-29T09:36:50;3.03;;;1.20;;
78365;SDS011;67641;59.864;30.464;2023-04-29T09:39:23;2.10;;;1.02;;
78365;SDS011;67641;59.864;30.464;2023-04-29T09:44:18;2.25;;;1.00;;
78365;SDS011;67641;59.864;30.464;2023-04-29T09:47:02;2.35;;;1.25;;
78365;SDS011;67641;59.864;30.464;2023-04-29T09:49:31;3.13;;;1.30;;
78365;SDS011;67641;59.864;30.464;2023-04-29T09:52:04;3.08;;;1.40;;
78365;SDS011;67641;59.864;30.464;2023-04-29T09:54:36;3.88;;;1.77;;
78365;SDS011;67641;59.864;30.464;2023-04-29T09:57:42;2.55;;;1.35;;
78365;SDS011;67641;59.864;30.464;2023-04-29T10:00:11;2.45;;;1.42;;
78365;SDS011;67641;59.864;30.464;2023-04-29T10:02:40;3.78;;;1.20;;
78365;SDS011;67641;59.864;30.464;2023-04-29T10:05:08;4.95;;;1.73;;
78365;SDS011;67641;59.864;30.464;2023-04-29T10:07:37;2.38;;;1.15;;
78365;SDS011;67641;59.864;30.464;2023-04-29T10:10:05;2.42;;;1.17;;
78365;SDS011;67641;59.864;30.464;2023-04-29T10:12:36;2.47;;;1.00;;
78365;SDS011;67641;59.864;30.464;2023-04-29T10:18:29;2.45;;;1.05;;
78365;SDS011;67641;59.864;30.464;2023-04-29T10:21:02;1.58;;;0.82;;
78365;SDS011;67641;59.864;30.464;2023-04-29T10:23:32;2.38;;;0.82;;
78365;SDS011;67641;59.864;30.464;2023-04-29T10:25:59;1.23;;;0.70;;
78365;SDS011;67641;59.864;30.464;2023-04-29T10:28:31;1.83;;;0.60;;
78365;SDS011;67641;59.864;30.464;2023-04-29T10:31:00;1.65;;;0.55;;
78365;SDS011;67641;59.864;30.464;2023-04-29T10:33:31;1.60;;;0.60;;
78365;SDS011;67641;59.864;30.464;2023-04-29T10:38:42;1.50;;;0.73;;
78365;SDS011;67641;59.864;30.464;2023-04-29T10:41:22;1.77;;;0.70;;
78365;SDS011;67641;59.864;30.464;2023-04-29T10:43:51;1.00;;;0.52;;
78365;SDS011;67641;59.864;30.464;2023-04-29T10:46:19;1.30;;;0.57;;
78365;SDS011;67641;59.864;30.464;2023-04-29T10:48:48;1.13;;;0.50;;
78365;SDS011;67641;59.864;30.464;2023-04-29T10:54:06;2.38;;;1.25;;
78365;SDS011;67641;59.864;30.464;2023-04-29T11:02:04;1.52;;;0.70;;
78365;SDS011;67641;59.864;30.464;2023-04-29T11:04:31;1.92;;;0.70;;
78365;SDS011;67641;59.864;30.464;2023-04-29T11:06:58;1.98;;;0.70;;
78365;SDS011;67641;59.864;30.464;2023-04-29T11:09:28;4.50;;;2.10;;
78365;SDS011;67641;59.864;30.464;2023-04-29T11:11:59;1.88;;;0.80;;
78365;SDS011;67641;59.864;30.464;2023-04-29T11:14:34;1.80;;;0.90;;
78365;SDS011;67641;59.864;30.464;2023-04-29T11:17:03;1.88;;;0.82;;
78365;SDS011;67641;59.864;30.464;2023-04-29T11:22:07;1.55;;;0.75;;
78365;SDS011;67641;59.864;30.464;2023-04-29T11:27:35;1.80;;;0.60;;
78365;SDS011;67641;59.864;30.464;2023-04-29T11:30:03;1.58;;;0.80;;
78365;SDS011;67641;59.864;30.464;2023-04-29T11:45:56;1.55;;;0.88;;
78365;SDS011;67641;59.864;30.464;2023-04-29T11:48:23;2.10;;;1.08;;
78365;SDS011;67641;59.864;30.464;2023-04-29T11:50:58;2.10;;;0.85;;
78365;SDS011;67641;59.864;30.464;2023-04-29T11:53:25;3.05;;;1.00;;
78365;SDS011;67641;59.864;30.464;2023-04-29T11:55:55;2.17;;;1.20;;
78365;SDS011;67641;59.864;30.464;2023-04-29T11:58:22;2.30;;;1.00;;
78365;SDS011;67641;59.864;30.464;2023-04-29T12:00:50;2.13;;;0.90;;
78365;SDS011;67641;59.864;30.464;2023-04-29T12:03:20;3.83;;;1.17;;
78365;SDS011;67641;59.864;30.464;2023-04-29T12:07:53;2.17;;;0.93;;
78365;SDS011;67641;59.864;30.464;2023-04-29T12:10:20;1.70;;;0.82;;
78365;SDS011;67641;59.864;30.464;2023-04-29T12:12:47;1.33;;;0.60;;
78365;SDS011;67641;59.864;30.464;2023-04-29T12:15:15;1.70;;;0.80;;
78365;SDS011;67641;59.864;30.464;2023-04-29T12:17:45;3.05;;;0.80;;
78365;SDS011;67641;59.864;30.464;2023-04-29T12:20:13;2.00;;;0.60;;
78365;SDS011;67641;59.864;30.464;2023-04-29T12:22:40;2.50;;;0.63;;
78365;SDS011;67641;59.864;30.464;2023-04-29T12:25:09;1.20;;;0.43;;
78365;SDS011;67641;59.864;30.464;2023-04-29T12:29:36;1.45;;;0.47;;
78365;SDS011;67641;59.864;30.464;2023-04-29T12:32:03;1.20;;;0.52;;
78365;SDS011;67641;59.864;30.464;2023-04-29T12:34:31;2.20;;;0.80;;
78365;SDS011;67641;59.864;30.464;2023-04-29T12:36:59;1.73;;;0.63;;
78365;SDS011;67641;59.864;30.464;2023-04-29T12:39:27;1.20;;;0.52;;
78365;SDS011;67641;59.864;30.464;2023-04-29T12:41:57;2.75;;;0.80;;
78365;SDS011;67641;59.864;30.464;2023-04-29T12:44:33;2.10;;;0.82;;
78365;SDS011;67641;59.864;30.464;2023-04-29T12:47:07;1.38;;;0.60;;
78365;SDS011;67641;59.864;30.464;2023-04-29T12:52:15;1.80;;;0.80;;
78365;SDS011;67641;59.864;30.464;2023-04-29T12:54:42;2.47;;;0.80;;
78365;SDS011;67641;59.864;30.464;2023-04-29T12:57:10;1.88;;;0.65;;
78365;SDS011;67641;59.864;30.464;2023-04-29T12:59:38;3.42;;;0.70;;
78365;SDS011;67641;59.864;30.464;2023-04-29T13:02:07;2.70;;;0.73;;
78365;SDS011;67641;59.864;30.464;2023-04-29T13:04:35;4.18;;;0.85;;
78365;SDS011;67641;59.864;30.464;2023-04-29T13:07:04;8.95;;;4.45;;
78365;SDS011;67641;59.864;30.464;2023-04-29T13:09:32;1.40;;;0.63;;
78365;SDS011;67641;59.864;30.464;2023-04-29T13:12:29;1.85;;;0.90;;
78365;SDS011;67641;59.864;30.464;2023-04-29T13:14:56;1.80;;;0.82;;
78365;SDS011;67641;59.864;30.464;2023-04-29T13:17:23;3.45;;;1.20;;
78365;SDS011;67641;59.864;30.464;2023-04-29T13:19:50;1.75;;;0.85;;
78365;SDS011;67641;59.864;30.464;2023-04-29T13:22:18;1.58;;;0.82;;
78365;SDS011;67641;59.864;30.464;2023-04-29T13:24:45;1.92;;;0.80;;
78365;SDS011;67641;59.864;30.464;2023-04-29T13:27:15;3.15;;;0.95;;
78365;SDS011;67641;59.864;30.464;2023-04-29T13:32:41;2.45;;;0.80;;
78365;SDS011;67641;59.864;30.464;2023-04-29T13:35:08;2.60;;;1.40;;
78365;SDS011;67641;59.864;30.464;2023-04-29T13:37:35;2.55;;;1.20;;
78365;SDS011;67641;59.864;30.464;2023-04-29T13:40:05;2.03;;;0.90;;
78365;SDS011;67641;59.864;30.464;2023-04-29T13:42:33;2.10;;;1.20;;
78365;SDS011;67641;59.864;30.464;2023-04-29T13:45:00;2.20;;;0.93;;
78365;SDS011;67641;59.864;30.464;2023-04-29T13:47:30;2.80;;;1.27;;
78365;SDS011;67641;59.864;30.464;2023-04-29T13:50:00;1.98;;;0.93;;
78365;SDS011;67641;59.864;30.464;2023-04-29T13:54:07;2.40;;;1.10;;
78365;SDS011;67641;59.864;30.464;2023-04-29T13:56:34;2.22;;;1.10;;
78365;SDS011;67641;59.864;30.464;2023-04-29T13:59:01;2.65;;;1.00;;
78365;SDS011;67641;59.864;30.464;2023-04-29T14:01:27;2.75;;;1.20;;
78365;SDS011;67641;59.864;30.464;2023-04-29T14:03:54;1.90;;;1.10;;
78365;SDS011;67641;59.864;30.464;2023-04-29T14:06:21;2.35;;;1.02;;
78365;SDS011;67641;59.864;30.464;2023-04-29T14:08:48;2.75;;;1.20;;
78365;SDS011;67641;59.864;30.464;2023-04-29T14:11:17;1.67;;;0.80;;
78365;SDS011;67641;59.864;30.464;2023-04-29T14:14:06;2.30;;;1.25;;
78365;SDS011;67641;59.864;30.464;2023-04-29T14:16:33;2.40;;;1.27;;
78365;SDS011;67641;59.864;30.464;2023-04-29T14:18:59;2.75;;;1.30;;
78365;SDS011;67641;59.864;30.464;2023-04-29T14:21:26;4.15;;;1.02;;
78365;SDS011;67641;59.864;30.464;2023-04-29T14:23:53;2.15;;;1.30;;
78365;SDS011;67641;59.864;30.464;2023-04-29T14:26:19;2.65;;;1.02;;
78365;SDS011;67641;59.864;30.464;2023-04-29T14:28:46;2.40;;;0.85;;
78365;SDS011;67641;59.864;30.464;2023-04-29T14:31:13;15.45;;;6.70;;
78365;SDS011;67641;59.864;30.464;2023-04-29T14:34:07;4.03;;;1.05;;
78365;SDS011;67641;59.864;30.464;2023-04-29T14:37:25;2.20;;;1.05;;
78365;SDS011;67641;59.864;30.464;2023-04-29T14:39:51;2.55;;;1.10;;
78365;SDS011;67641;59.864;30.464;2023-04-29T14:42:18;2.50;;;1.00;;
78365;SDS011;67641;59.864;30.464;2023-04-29T14:44:45;2.58;;;1.00;;
78365;SDS011;67641;59.864;30.464;2023-04-29T14:47:12;4.75;;;1.20;;
78365;SDS011;67641;59.864;30.464;2023-04-29T14:49:38;2.70;;;0.90;;
78365;SDS011;67641;59.864;30.464;2023-04-29T14:54:47;2.00;;;0.90;;
78365;SDS011;67641;59.864;30.464;2023-04-29T14:57:15;1.55;;;0.95;;
78365;SDS011;67641;59.864;30.464;2023-04-29T14:59:45;2.22;;;1.00;;
78365;SDS011;67641;59.864;30.464;2023-04-29T15:02:15;3.60;;;1.17;;
78365;SDS011;67641;59.864;30.464;2023-04-29T15:04:45;9.05;;;3.42;;
78365;SDS011;67641;59.864;30.464;2023-04-29T15:07:13;2.97;;;1.27;;
78365;SDS011;67641;59.864;30.464;2023-04-29T15:09:41;4.38;;;1.73;;
78365;SDS011;67641;59.864;30.464;2023-04-29T15:14:50;2.92;;;1.70;;
78365;SDS011;67641;59.864;30.464;2023-04-29T15:17:18;4.05;;;1.30;;
78365;SDS011;67641;59.864;30.464;2023-04-29T15:19:46;2.50;;;1.30;;
78365;SDS011;67641;59.864;30.464;2023-04-29T15:22:13;4.85;;;1.60;;
78365;SDS011;67641;59.864;30.464;2023-04-29T15:24:40;5.07;;;1.77;;
78365;SDS011;67641;59.864;30.464;2023-04-29T15:27:07;5.75;;;1.40;;
78365;SDS011;67641;59.864;30.464;2023-04-29T15:29:33;2.67;;;1.50;;
78365;SDS011;67641;59.864;30.464;2023-04-29T15:32:03;5.00;;;1.63;;
78365;SDS011;67641;59.864;30.464;2023-04-29T15:37:03;4.18;;;1.40;;
78365;SDS011;67641;59.864;30.464;2023-04-29T15:39:29;2.28;;;1.00;;
78365;SDS011;67641;59.864;30.464;2023-04-29T15:41:56;4.82;;;2.45;;
78365;SDS011;67641;59.864;30.464;2023-04-29T15:44:24;2.78;;;1.20;;
78365;SDS011;67641;59.864;30.464;2023-04-29T15:46:50;6.53;;;1.35;;
78365;SDS011;67641;59.864;30.464;2023-04-29T15:49:18;2.58;;;1.27;;
78365;SDS011;67641;59.864;30.464;2023-04-29T15:51:45;4.53;;;0.90;;
78365;SDS011;67641;59.864;30.464;2023-04-29T15:54:14;3.60;;;1.00;;
78365;SDS011;67641;59.864;30.464;2023-04-29T15:59:00;3.70;;;1.48;;
78365;SDS011;67641;59.864;30.464;2023-04-29T16:01:27;10.02;;;6.30;;
78365;SDS011;67641;59.864;30.464;2023-04-29T16:03:54;24.45;;;15.20;;
78365;SDS011;67641;59.864;30.464;2023-04-29T16:06:22;12.07;;;6.97;;
78365;SDS011;67641;59.864;30.464;2023-04-29T16:08:49;44.28;;;23.45;;
78365;SDS011;67641;59.864;30.464;2023-04-29T16:11:20;35.90;;;20.35;;
78365;SDS011;67641;59.864;30.464;2023-04-29T16:13:46;28.17;;;16.27;;
78365;SDS011;67641;59.864;30.464;2023-04-29T16:16:13;27.98;;;14.50;;
78365;SDS011;67641;59.864;30.464;2023-04-29T16:20:36;9.43;;;4.90;;
78365;SDS011;67641;59.864;30.464;2023-04-29T16:23:04;8.20;;;3.55;;
78365;SDS011;67641;59.864;30.464;2023-04-29T16:25:31;37.15;;;22.67;;
78365;SDS011;67641;59.864;30.464;2023-04-29T16:28:01;50.30;;;30.17;;
78365;SDS011;67641;59.864;30.464;2023-04-29T16:30:27;49.55;;;28.40;;
78365;SDS011;67641;59.864;30.464;2023-04-29T16:32:54;48.65;;;24.70;;
78365;SDS011;67641;59.864;30.464;2023-04-29T16:35:20;35.55;;;19.02;;